Time;durP1;ratioP1;P1;durP2;ratioP2;P2;SDS_P1;SDS_P2;PMS_P1;PMS_P2;Temp;Humidity;BMP_temperature;BMP_pressure;BME280_temperature;BME280_humidity;BME280_pressure;Samples;Min_cycle;Max_cycle;Signal;HPM_P1;HPM_P2
2023/03/28 00:00:30;;;;;;;3.10;2.90;;;1.60;70.30;;;;;;6267325;28;20269;-81
2023/03/28 00:03:38;;;;;;;2.80;2.80;;;1.20;71.20;;;;;;6258340;28;20225;-79
2023/03/28 00:06:44;;;;;;;2.77;2.77;;;1.00;72.50;;;;;;6265955;28;20233;-77
2023/03/28 00:09:50;;;;;;;2.63;2.63;;;0.80;73.00;;;;;;6255427;28;20261;-81
2023/03/28 00:12:53;;;;;;;3.30;3.00;;;0.60;73.70;;;;;;6262260;28;20229;-80
2023/03/28 00:16:02;;;;;;;2.73;2.73;;;0.60;73.80;;;;;;6258386;28;20481;-81
2023/03/28 00:19:08;;;;;;;2.80;2.80;;;0.50;73.60;;;;;;6254343;28;20361;-80
2023/03/28 00:22:11;;;;;;;2.93;2.80;;;0.50;73.50;;;;;;6258887;28;20249;-83
2023/03/28 00:25:15;;;;;;;2.90;2.90;;;0.40;73.30;;;;;;6264059;28;20237;-81
2023/03/28 00:28:19;;;;;;;2.73;2.73;;;0.50;72.60;;;;;;6272891;28;20758;-82
2023/03/28 00:31:23;;;;;;;3.43;3.13;;;0.50;72.30;;;;;;6281470;28;20283;-82
2023/03/28 00:34:26;;;;;;;2.87;2.67;;;0.50;72.60;;;;;;6273833;28;20234;-82
2023/03/28 00:37:30;;;;;;;3.60;3.33;;;0.50;73.10;;;;;;6276446;28;20232;-80
2023/03/28 00:40:38;;;;;;;2.73;2.73;;;0.50;73.50;;;;;;6261252;28;20315;-80
2023/03/28 00:43:44;;;;;;;3.33;3.07;;;0.50;74.00;;;;;;6247719;28;20235;-79
2023/03/28 00:46:47;;;;;;;3.13;3.03;;;0.50;74.10;;;;;;6259872;28;20242;-81
2023/03/28 00:49:52;;;;;;;3.43;3.20;;;0.60;74.10;;;;;;6250803;28;20328;-81
2023/03/28 00:53:03;;;;;;;2.97;2.97;;;0.60;73.70;;;;;;6252202;28;20249;-82
2023/03/28 00:56:11;;;;;;;2.97;2.87;;;0.60;73.60;;;;;;6263800;28;20325;-81
2023/03/28 00:59:19;;;;;;;6.40;3.00;;;0.60;72.90;;;;;;6256200;28;20232;-81
2023/03/28 01:02:22;;;;;;;5.20;3.40;;;0.80;72.30;;;;;;6253938;28;20300;-81
2023/03/28 01:05:28;;;;;;;3.33;3.13;;;0.80;72.20;;;;;;6255066;28;20229;-80
2023/03/28 01:08:38;;;;;;;3.20;3.10;;;0.70;72.10;;;;;;6252651;28;20238;-81
2023/03/28 01:11:45;;;;;;;3.20;3.10;;;0.60;72.00;;;;;;6239970;28;20612;-81
2023/03/28 01:14:48;;;;;;;3.10;2.90;;;0.60;72.00;;;;;;6256543;28;20237;-80
2023/03/28 01:17:52;;;;;;;2.80;2.70;;;0.60;72.00;;;;;;6260094;28;20315;-80
2023/03/28 01:21:48;;;;;;;3.23;3.03;;;0.60;71.90;;;;;;6239664;28;20241;-83
2023/03/28 01:25:35;;;;;;;3.27;3.10;;;0.60;71.90;;;;;;6176502;28;20235;-81
2023/03/28 01:29:12;;;;;;;3.43;3.17;;;0.60;71.50;;;;;;6189901;28;20305;-84
2023/03/28 01:32:54;;;;;;;2.90;2.73;;;0.70;71.10;;;;;;6271837;28;20627;-81
2023/03/28 01:36:38;;;;;;;2.80;2.70;;;0.70;71.10;;;;;;6246076;28;20274;-80
2023/03/28 01:40:10;;;;;;;3.10;2.90;;;0.60;71.50;;;;;;6230968;28;20748;-78
2023/03/28 01:43:27;;;;;;;3.07;3.00;;;0.60;71.30;;;;;;6261461;28;20230;-81
2023/03/28 01:46:38;;;;;;;3.50;3.20;;;0.70;71.40;;;;;;6281415;28;20229;-80
2023/03/28 01:49:47;;;;;;;3.40;3.30;;;0.80;71.40;;;;;;6268309;28;20234;-82
2023/03/28 01:53:02;;;;;;;2.90;2.90;;;0.80;71.10;;;;;;6263801;28;20234;-82
2023/03/28 01:56:11;;;;;;;3.00;3.00;;;0.80;71.30;;;;;;6262874;28;20234;-81
2023/03/28 01:59:19;;;;;;;3.03;2.93;;;0.90;71.30;;;;;;6300605;28;20281;-78
2023/03/28 02:02:29;;;;;;;3.50;3.20;;;1.00;71.50;;;;;;6303904;28;20253;-80
2023/03/28 02:05:34;;;;;;;4.97;3.30;;;1.00;71.90;;;;;;6309783;28;20251;-80
2023/03/28 02:08:44;;;;;;;3.67;3.33;;;1.00;73.00;;;;;;6292113;28;20210;-80
2023/03/28 02:11:49;;;;;;;3.70;3.40;;;0.90;73.40;;;;;;6294518;28;20296;-77
2023/03/28 02:14:56;;;;;;;4.67;3.23;;;0.80;73.30;;;;;;6297199;28;20277;-79
2023/03/28 02:18:03;;;;;;;3.73;3.37;;;0.80;73.50;;;;;;6279794;28;20226;-79
2023/03/28 02:21:10;;;;;;;3.50;3.30;;;0.70;74.00;;;;;;6284456;28;20240;-79
2023/03/28 02:24:15;;;;;;;3.70;3.40;;;0.60;74.40;;;;;;6291470;28;20231;-77
2023/03/28 02:27:21;;;;;;;4.10;3.80;;;0.60;74.50;;;;;;6292589;28;20234;-75
2023/03/28 02:30:24;;;;;;;3.50;3.30;;;0.60;74.50;;;;;;6293583;28;20282;-78
2023/03/28 02:33:37;;;;;;;3.93;3.80;;;0.60;74.50;;;;;;6287756;28;20378;-78
2023/03/28 02:36:48;;;;;;;3.87;3.67;;;0.60;74.80;;;;;;6288997;28;20214;-77
2023/03/28 02:40:06;;;;;;;4.53;3.83;;;0.50;74.90;;;;;;6298644;28;20229;-77
2023/03/28 02:43:26;;;;;;;3.63;3.37;;;0.50;74.60;;;;;;6298055;28;20237;-75
2023/03/28 02:46:33;;;;;;;4.13;4.03;;;0.50;74.10;;;;;;6280052;28;20296;-80
2023/03/28 02:49:48;;;;;;;4.07;3.80;;;0.50;73.70;;;;;;6292370;28;20216;-78
2023/03/28 02:53:02;;;;;;;3.47;3.20;;;0.40;73.20;;;;;;6294098;28;20248;-76
2023/03/28 02:56:12;;;;;;;3.77;3.40;;;0.50;72.80;;;;;;6272790;28;20235;-77
2023/03/28 02:59:18;;;;;;;3.53;3.40;;;0.50;72.20;;;;;;6291050;28;20298;-79
2023/03/28 03:02:22;;;;;;;3.40;3.10;;;0.60;72.00;;;;;;6300335;28;20229;-77
2023/03/28 03:05:25;;;;;;;3.50;3.40;;;0.60;71.90;;;;;;6296911;28;20224;-78
2023/03/28 03:08:29;;;;;;;3.10;3.00;;;0.60;71.20;;;;;;6290686;28;20277;-81
2023/03/28 03:11:33;;;;;;;3.13;3.10;;;0.60;70.90;;;;;;6292953;28;20222;-77
2023/03/28 03:14:37;;;;;;;3.60;3.40;;;0.70;70.30;;;;;;6282470;28;20243;-82
2023/03/28 03:17:40;;;;;;;3.03;2.93;;;0.70;70.00;;;;;;6268488;28;20302;-80
2023/03/28 03:20:46;;;;;;;4.00;3.80;;;0.80;69.90;;;;;;6255514;28;20289;-80
2023/03/28 03:23:50;;;;;;;3.87;3.50;;;0.80;70.00;;;;;;6257129;28;20253;-81
2023/03/28 03:26:54;;;;;;;3.90;3.60;;;0.80;70.00;;;;;;6251689;28;20238;-83
2023/03/28 03:29:57;;;;;;;3.50;3.30;;;0.80;70.10;;;;;;6264969;28;20313;-80
2023/03/28 03:33:04;;;;;;;3.73;3.57;;;0.80;70.30;;;;;;6241329;28;20716;-82
2023/03/28 03:36:11;;;;;;;4.17;3.80;;;0.80;70.50;;;;;;6245424;28;20241;-81
2023/03/28 03:39:14;;;;;;;8.87;3.80;;;0.80;70.90;;;;;;6237619;28;20237;-82
2023/03/28 03:42:19;;;;;;;4.40;4.20;;;0.60;71.40;;;;;;6257947;28;20268;-79
2023/03/28 03:45:22;;;;;;;4.27;3.97;;;0.60;71.80;;;;;;6256091;28;20242;-80
2023/03/28 03:48:25;;;;;;;4.50;4.10;;;0.60;72.10;;;;;;6255873;28;20376;-80
2023/03/28 03:51:28;;;;;;;5.17;4.70;;;0.60;72.30;;;;;;6260123;28;20611;-79
2023/03/28 03:54:31;;;;;;;3.97;3.80;;;0.60;72.50;;;;;;6258379;28;20231;-79
2023/03/28 03:57:36;;;;;;;4.47;3.83;;;0.60;72.60;;;;;;6256242;28;20233;-80
2023/03/28 04:00:39;;;;;;;6.60;3.77;;;0.50;73.20;;;;;;6263837;28;20236;-81
2023/03/28 04:03:42;;;;;;;4.47;4.07;;;0.50;73.20;;;;;;6262018;28;20226;-81
2023/03/28 04:06:45;;;;;;;3.73;3.50;;;0.50;73.30;;;;;;6261037;28;20246;-77
2023/03/28 04:09:48;;;;;;;5.87;4.03;;;0.50;73.40;;;;;;6251989;28;20726;-79
2023/03/28 04:12:53;;;;;;;4.97;4.03;;;0.60;73.40;;;;;;6257823;28;20245;-78
2023/03/28 04:15:56;;;;;;;5.80;4.20;;;0.60;73.50;;;;;;6253286;28;20294;-81
2023/03/28 04:19:01;;;;;;;7.57;4.53;;;0.50;73.40;;;;;;6257806;28;20239;-81
2023/03/28 04:22:06;;;;;;;4.30;3.93;;;0.40;73.60;;;;;;6262264;28;20252;-75
2023/03/28 04:25:09;;;;;;;6.10;4.53;;;0.40;73.50;;;;;;6249835;28;20250;-76
2023/03/28 04:28:15;;;;;;;4.27;3.97;;;0.40;73.50;;;;;;6259967;28;20253;-76
2023/03/28 04:31:20;;;;;;;4.33;3.80;;;0.30;73.60;;;;;;6265340;28;20321;-77
2023/03/28 04:34:28;;;;;;;4.33;3.80;;;0.30;73.50;;;;;;6260052;28;20234;-77
2023/03/28 04:37:32;;;;;;;3.93;3.60;;;0.30;73.50;;;;;;6276100;28;20323;-77
2023/03/28 04:40:38;;;;;;;4.57;4.17;;;0.20;73.60;;;;;;6257074;28;20354;-77
2023/03/28 04:43:43;;;;;;;4.40;4.10;;;0.30;73.40;;;;;;6260176;28;20463;-78
2023/03/28 04:46:47;;;;;;;6.57;4.10;;;0.30;73.30;;;;;;6261524;28;20229;-77
2023/03/28 04:49:51;;;;;;;8.33;4.13;;;0.30;73.40;;;;;;6267936;28;20245;-78
2023/03/28 04:52:54;;;;;;;4.53;4.23;;;0.30;73.20;;;;;;6267732;28;20238;-77
2023/03/28 04:55:58;;;;;;;4.40;4.20;;;0.30;73.50;;;;;;6251430;28;20742;-75
2023/03/28 04:59:06;;;;;;;4.70;3.90;;;0.30;73.60;;;;;;6254248;28;20809;-77
2023/03/28 05:02:09;;;;;;;4.13;3.87;;;0.30;73.50;;;;;;6273339;28;20798;-77
2023/03/28 05:05:12;;;;;;;4.73;3.97;;;0.40;73.30;;;;;;6266063;28;20237;-77
2023/03/28 05:08:17;;;;;;;4.60;4.10;;;0.30;73.20;;;;;;6260695;28;20248;-77
2023/03/28 05:11:21;;;;;;;4.70;4.30;;;0.30;73.20;;;;;;6270289;28;20238;-77
2023/03/28 05:14:26;;;;;;;6.67;4.23;;;0.30;73.00;;;;;;6269219;28;20249;-77
2023/03/28 05:17:29;;;;;;;5.13;4.50;;;0.30;73.00;;;;;;6277654;28;20246;-74
2023/03/28 05:20:33;;;;;;;5.60;4.77;;;0.40;72.90;;;;;;6279885;28;20317;-76
2023/03/28 05:23:36;;;;;;;4.97;4.63;;;0.50;72.80;;;;;;6279560;28;20229;-75
2023/03/28 05:26:40;;;;;;;4.57;4.17;;;0.60;72.50;;;;;;6291109;28;20232;-76
2023/03/28 05:29:45;;;;;;;4.27;3.97;;;0.60;72.30;;;;;;6278243;28;20245;-76
2023/03/28 05:32:48;;;;;;;4.23;3.97;;;0.60;72.20;;;;;;6279682;28;20233;-78
2023/03/28 05:35:52;;;;;;;4.53;4.10;;;0.60;72.00;;;;;;6265872;28;20444;-79
2023/03/28 05:38:55;;;;;;;5.40;4.47;;;0.50;72.50;;;;;;6271048;28;20297;-77
2023/03/28 05:41:58;;;;;;;5.20;3.90;;;0.50;72.50;;;;;;6264701;28;20250;-78
2023/03/28 05:45:03;;;;;;;4.43;3.73;;;0.40;72.30;;;;;;6265335;28;20242;-78
2023/03/28 05:48:06;;;;;;;3.70;3.40;;;0.30;71.70;;;;;;6269315;28;20618;-77
2023/03/28 05:51:09;;;;;;;3.53;3.43;;;0.40;71.70;;;;;;6260305;28;20313;-76
2023/03/28 05:54:12;;;;;;;4.13;3.93;;;0.50;71.40;;;;;;6241857;28;20326;-78
2023/03/28 05:57:16;;;;;;;4.00;3.70;;;0.50;71.10;;;;;;6242890;28;20246;-77
2023/03/28 06:00:22;;;;;;;4.30;4.10;;;0.60;70.70;;;;;;6257410;28;20252;-77
2023/03/28 06:03:26;;;;;;;4.40;3.80;;;0.60;70.40;;;;;;6282958;28;20234;-76
2023/03/28 06:06:30;;;;;;;4.20;3.77;;;0.60;70.50;;;;;;6284879;28;20287;-76
2023/03/28 06:09:33;;;;;;;4.40;4.00;;;0.60;70.50;;;;;;6281673;28;20257;-76
2023/03/28 06:12:37;;;;;;;5.77;3.77;;;0.60;70.60;;;;;;6284743;28;20257;-76
2023/03/28 06:15:41;;;;;;;3.97;3.77;;;0.70;70.30;;;;;;6292209;28;20665;-78
2023/03/28 06:18:44;;;;;;;3.77;3.53;;;0.80;70.20;;;;;;6262116;28;20234;-78
2023/03/28 06:21:47;;;;;;;4.30;3.83;;;0.80;70.30;;;;;;6239740;28;20234;-77
2023/03/28 06:24:50;;;;;;;6.13;3.80;;;0.80;70.00;;;;;;6250327;28;20226;-77
2023/03/28 06:27:54;;;;;;;3.70;3.40;;;1.00;70.00;;;;;;6272957;28;20248;-78
2023/03/28 06:30:59;;;;;;;5.27;3.80;;;1.30;68.60;;;;;;6280657;28;20244;-78
2023/03/28 06:34:03;;;;;;;5.50;3.97;;;1.40;68.00;;;;;;6264171;28;20234;-76
2023/03/28 06:37:06;;;;;;;4.07;3.80;;;1.40;67.80;;;;;;6268865;28;20230;-76
2023/03/28 06:40:09;;;;;;;5.27;4.03;;;1.10;68.00;;;;;;6264522;28;20519;-76
2023/03/28 06:43:14;;;;;;;4.00;3.70;;;1.10;68.50;;;;;;6260991;28;20846;-74
2023/03/28 06:46:19;;;;;;;4.63;4.33;;;1.10;68.10;;;;;;6268918;28;20241;-77
2023/03/28 06:49:22;;;;;;;3.97;3.83;;;1.20;68.20;;;;;;6278083;28;20764;-76
2023/03/28 06:52:26;;;;;;;3.83;3.63;;;1.30;67.90;;;;;;6274854;28;20251;-74
2023/03/28 06:55:29;;;;;;;4.20;4.00;;;1.40;67.70;;;;;;6262136;28;20229;-78
2023/03/28 06:58:32;;;;;;;3.70;3.40;;;1.50;67.60;;;;;;6262098;28;20266;-75
2023/03/28 07:01:36;;;;;;;3.83;3.63;;;1.60;67.00;;;;;;6253663;28;20236;-78
2023/03/28 07:04:39;;;;;;;4.87;3.70;;;1.70;66.30;;;;;;6267347;28;20230;-76
2023/03/28 07:07:42;;;;;;;4.03;3.63;;;1.80;65.70;;;;;;6264270;28;20233;-79
2023/03/28 07:10:45;;;;;;;3.90;3.60;;;1.90;65.30;;;;;;6258073;28;20827;-76
2023/03/28 07:13:48;;;;;;;4.10;3.80;;;2.00;65.60;;;;;;6259108;28;20244;-76
2023/03/28 07:16:53;;;;;;;3.97;3.60;;;2.00;65.50;;;;;;6268809;28;20385;-75
2023/03/28 07:19:56;;;;;;;6.30;3.70;;;2.10;65.10;;;;;;6270325;28;20233;-75
2023/03/28 07:23:02;;;;;;;4.37;3.97;;;2.30;64.30;;;;;;6274409;28;20843;-76
2023/03/28 07:26:07;;;;;;;4.93;3.60;;;2.40;64.70;;;;;;6294259;28;20296;-76
2023/03/28 07:29:12;;;;;;;3.73;3.40;;;2.50;63.40;;;;;;6260537;28;20250;-76
2023/03/28 07:32:16;;;;;;;3.63;3.53;;;2.50;62.70;;;;;;6264960;28;20273;-76
2023/03/28 07:35:19;;;;;;;4.70;3.93;;;2.40;62.60;;;;;;6272008;28;20241;-76
2023/03/28 07:38:23;;;;;;;3.80;3.70;;;2.40;62.60;;;;;;6288703;28;20234;-75
2023/03/28 07:41:26;;;;;;;4.00;3.67;;;2.30;62.80;;;;;;6289960;28;20233;-78
2023/03/28 07:44:29;;;;;;;4.07;3.70;;;2.30;62.90;;;;;;6275123;28;20645;-77
2023/03/28 07:47:33;;;;;;;3.67;3.57;;;2.40;62.80;;;;;;6262344;28;20333;-78
2023/03/28 07:50:37;;;;;;;4.23;3.77;;;2.50;62.00;;;;;;6283177;28;20320;-76
2023/03/28 07:53:40;;;;;;;3.43;3.30;;;2.50;61.50;;;;;;6260470;28;20602;-78
2023/03/28 07:56:44;;;;;;;3.50;3.40;;;2.60;60.30;;;;;;6293749;28;20229;-78
2023/03/28 07:59:49;;;;;;;3.43;3.33;;;2.70;59.10;;;;;;6279077;28;20246;-77
2023/03/28 08:02:53;;;;;;;3.97;3.87;;;2.70;59.00;;;;;;6272891;28;20230;-77
2023/03/28 08:05:58;;;;;;;3.33;3.13;;;2.80;57.70;;;;;;6269002;28;20303;-78
2023/03/28 08:09:02;;;;;;;3.20;3.20;;;2.80;58.20;;;;;;6255735;28;20829;-76
2023/03/28 08:12:05;;;;;;;3.43;3.30;;;2.90;56.60;;;;;;6271816;28;20238;-78
2023/03/28 08:15:10;;;;;;;3.57;3.33;;;3.00;56.40;;;;;;6260167;28;20226;-78
2023/03/28 08:18:19;;;;;;;4.83;3.40;;;2.90;56.20;;;;;;6260429;28;20238;-77
2023/03/28 08:21:23;;;;;;;2.97;2.97;;;3.00;55.70;;;;;;6265737;28;20628;-76
2023/03/28 08:24:28;;;;;;;3.60;3.40;;;3.00;55.20;;;;;;6276399;28;20253;-76
2023/03/28 08:27:38;;;;;;;3.83;3.30;;;3.10;55.90;;;;;;6281538;28;20312;-77
2023/03/28 08:30:41;;;;;;;3.30;3.20;;;3.10;55.90;;;;;;6245684;28;20313;-77
2023/03/28 08:33:47;;;;;;;3.20;3.10;;;3.30;56.10;;;;;;6262890;28;20241;-77
2023/03/28 08:36:50;;;;;;;3.73;3.50;;;3.30;55.50;;;;;;6269616;28;20323;-79
2023/03/28 08:39:53;;;;;;;3.53;3.23;;;3.30;54.60;;;;;;6252629;28;20252;-78
2023/03/28 08:43:09;;;;;;;3.13;3.13;;;3.50;54.40;;;;;;6256871;28;20238;-75
2023/03/28 08:46:18;;;;;;;11.27;7.40;;;3.50;53.40;;;;;;6267560;28;20313;-77
2023/03/28 08:49:23;;;;;;;3.23;3.13;;;3.50;52.90;;;;;;6267929;28;20234;-77
2023/03/28 08:52:28;;;;;;;3.30;3.10;;;3.50;52.80;;;;;;6290284;28;20254;-77
2023/03/28 08:55:36;;;;;;;3.10;3.00;;;3.50;53.20;;;;;;6284578;28;20573;-75
2023/03/28 08:59:03;;;;;;;3.20;3.07;;;3.80;52.90;;;;;;6280951;28;20325;-78
2023/03/28 09:02:16;;;;;;;3.10;2.90;;;3.80;52.40;;;;;;6264856;28;20780;-76
2023/03/28 09:05:29;;;;;;;3.63;3.53;;;3.70;51.50;;;;;;6264462;28;20242;-77
2023/03/28 09:09:07;;;;;;;3.80;3.50;;;3.60;51.70;;;;;;6242581;28;20234;-78
2023/03/28 09:12:24;;;;;;;3.10;3.00;;;3.60;52.00;;;;;;6251601;28;20312;-77
2023/03/28 09:15:40;;;;;;;3.20;3.00;;;3.80;51.60;;;;;;6253948;28;20642;-76
2023/03/28 09:19:31;;;;;;;2.80;2.70;;;4.00;50.90;;;;;;6259923;28;20234;-79
2023/03/28 09:23:32;;;;;;;2.90;2.73;;;4.00;50.60;;;;;;6172995;28;20517;-77
2023/03/28 09:26:39;;;;;;;2.83;2.80;;;4.30;50.80;;;;;;6193070;28;20294;-78
2023/03/28 09:29:47;;;;;;;2.87;2.87;;;4.50;50.20;;;;;;6258932;28;20739;-75
2023/03/28 09:32:54;;;;;;;2.90;2.90;;;4.70;50.10;;;;;;6264572;28;20241;-78
2023/03/28 09:35:57;;;;;;;3.10;3.00;;;4.70;49.00;;;;;;6252966;28;20229;-75
2023/03/28 09:39:12;;;;;;;3.03;2.83;;;4.50;49.00;;;;;;6265528;28;20777;-77
2023/03/28 09:42:26;;;;;;;3.00;2.80;;;4.50;49.20;;;;;;6263855;28;20608;-76
2023/03/28 09:45:39;;;;;;;2.83;2.83;;;4.70;50.10;;;;;;6263724;28;20290;-76
2023/03/28 09:48:42;;;;;;;2.50;2.50;;;4.90;49.10;;;;;;6268263;28;20266;-75
2023/03/28 09:51:46;;;;;;;2.87;2.80;;;5.00;49.50;;;;;;6270418;28;20249;-78
2023/03/28 09:54:51;;;;;;;3.00;2.90;;;4.90;48.20;;;;;;6262030;28;20580;-76
2023/03/28 09:58:06;;;;;;;2.87;2.77;;;5.10;48.50;;;;;;6266460;28;20692;-78
2023/03/28 10:01:25;;;;;;;3.13;2.93;;;5.20;47.20;;;;;;6241113;28;20253;-78
2023/03/28 10:04:33;;;;;;;2.60;2.60;;;5.00;47.20;;;;;;6260170;28;20238;-77
2023/03/28 10:07:43;;;;;;;2.73;2.70;;;5.00;48.20;;;;;;6221583;28;20756;-78
2023/03/28 10:11:01;;;;;;;2.60;2.60;;;5.00;47.20;;;;;;6263979;28;20237;-75
2023/03/28 10:14:05;;;;;;;3.00;2.80;;;5.00;48.00;;;;;;6261645;28;20237;-75
2023/03/28 10:17:14;;;;;;;2.63;2.63;;;5.00;48.00;;;;;;6257016;28;20761;-77
2023/03/28 10:20:20;;;;;;;3.10;2.90;;;4.90;47.80;;;;;;6256167;28;20330;-78
2023/03/28 10:23:24;;;;;;;2.50;2.50;;;4.90;48.60;;;;;;6261823;28;20323;-77
2023/03/28 10:26:29;;;;;;;2.80;2.80;;;5.00;48.40;;;;;;6249811;28;20231;-75
2023/03/28 10:29:33;;;;;;;2.70;2.70;;;4.90;48.20;;;;;;6251679;28;20245;-77
2023/03/28 10:32:36;;;;;;;3.47;3.20;;;5.00;47.60;;;;;;6258806;28;20483;-78
2023/03/28 10:35:45;;;;;;;2.80;2.70;;;5.00;48.00;;;;;;6253401;28;20871;-76
2023/03/28 10:38:49;;;;;;;3.17;2.97;;;5.00;48.30;;;;;;6262205;28;20229;-77
2023/03/28 10:41:56;;;;;;;2.90;2.80;;;5.30;48.60;;;;;;6269200;28;20244;-77
2023/03/28 10:45:01;;;;;;;2.70;2.70;;;5.40;48.20;;;;;;6265135;28;20373;-76
2023/03/28 10:48:13;;;;;;;2.93;2.83;;;5.50;47.10;;;;;;6257862;28;20233;-76
2023/03/28 10:51:20;;;;;;;3.23;3.13;;;5.50;47.70;;;;;;6270315;28;20245;-77
2023/03/28 10:54:37;;;;;;;2.83;2.80;;;5.80;47.50;;;;;;6262438;28;20264;-77
2023/03/28 10:57:52;;;;;;;3.07;2.80;;;5.90;47.60;;;;;;6261489;28;20318;-77
2023/03/28 11:01:00;;;;;;;2.70;2.60;;;6.30;46.90;;;;;;6264239;28;20241;-76
2023/03/28 11:04:20;;;;;;;3.00;2.90;;;6.60;46.40;;;;;;6256056;28;20811;-77
2023/03/28 11:07:31;;;;;;;2.40;2.40;;;6.80;45.30;;;;;;6275725;28;20242;-76
2023/03/28 11:10:42;;;;;;;2.80;2.50;;;7.00;45.00;;;;;;6254944;28;20238;-76
2023/03/28 11:13:56;;;;;;;2.80;2.70;;;7.00;44.20;;;;;;6254088;28;20226;-76
2023/03/28 11:17:07;;;;;;;2.53;2.43;;;6.70;44.70;;;;;;6264545;28;20250;-75
2023/03/28 11:20:23;;;;;;;2.93;2.83;;;6.60;44.70;;;;;;6271395;28;20866;-78
2023/03/28 11:23:38;;;;;;;2.70;2.70;;;6.30;45.20;;;;;;6287832;28;20245;-79
2023/03/28 11:26:51;;;;;;;2.80;2.80;;;6.30;45.60;;;;;;6268627;28;20234;-77
2023/03/28 11:30:04;;;;;;;2.67;2.53;;;6.10;44.80;;;;;;6285820;28;20265;-79
2023/03/28 11:33:15;;;;;;;2.63;2.43;;;6.20;45.10;;;;;;6261355;28;20248;-76
2023/03/28 11:36:22;;;;;;;2.63;2.57;;;6.30;44.40;;;;;;6262975;28;20230;-77
2023/03/28 11:39:41;;;;;;;3.10;2.87;;;6.40;44.70;;;;;;6263876;28;20233;-76
2023/03/28 11:42:54;;;;;;;2.80;2.60;;;6.60;44.10;;;;;;6249899;28;20372;-76
2023/03/28 11:46:08;;;;;;;3.00;2.80;;;6.90;44.60;;;;;;6282010;28;20338;-76
2023/03/28 11:49:20;;;;;;;2.67;2.67;;;7.20;44.90;;;;;;6260681;28;20231;-77
2023/03/28 11:52:26;;;;;;;2.33;2.33;;;7.40;44.90;;;;;;6256406;28;20626;-78
2023/03/28 11:55:34;;;;;;;2.40;2.40;;;7.30;44.40;;;;;;6263562;28;20234;-76
2023/03/28 11:58:41;;;;;;;2.40;2.40;;;7.50;43.50;;;;;;6272160;28;20229;-75
2023/03/28 12:01:50;;;;;;;2.50;2.40;;;7.70;43.80;;;;;;6287785;28;20253;-78
2023/03/28 12:05:00;;;;;;;2.50;2.50;;;7.90;42.20;;;;;;6279471;28;20323;-76
2023/03/28 12:08:11;;;;;;;2.87;2.77;;;7.60;41.40;;;;;;6280956;28;20240;-76
2023/03/28 12:11:20;;;;;;;2.57;2.47;;;7.20;42.60;;;;;;6265962;28;20266;-76
2023/03/28 12:14:34;;;;;;;2.67;2.57;;;7.20;41.70;;;;;;6249881;28;20438;-77
2023/03/28 12:17:43;;;;;;;2.70;2.50;;;7.50;42.10;;;;;;6255504;28;20313;-78
2023/03/28 12:20:50;;;;;;;2.60;2.50;;;8.00;41.80;;;;;;6268363;28;20392;-76
2023/03/28 12:24:02;;;;;;;2.57;2.47;;;8.10;42.70;;;;;;6264032;28;20230;-77
2023/03/28 12:27:19;;;;;;;2.63;2.60;;;8.00;41.50;;;;;;6259923;28;20793;-77
2023/03/28 12:30:28;;;;;;;3.00;2.80;;;7.60;41.20;;;;;;6262345;28;20792;-77
2023/03/28 12:33:55;;;;;;;2.93;2.50;;;7.20;41.60;;;;;;6263821;28;20241;-76
2023/03/28 12:37:05;;;;;;;2.93;2.40;;;7.20;42.30;;;;;;6251072;28;20707;-77
2023/03/28 12:40:22;;;;;;;2.57;2.57;;;7.60;43.00;;;;;;6268816;28;20245;-76
2023/03/28 12:43:30;;;;;;;2.53;2.50;;;8.00;41.90;;;;;;6269784;28;20747;-79
2023/03/28 12:46:37;;;;;;;2.63;2.63;;;8.10;41.30;;;;;;6248575;28;20241;-79
2023/03/28 12:49:45;;;;;;;2.50;2.47;;;8.30;40.70;;;;;;6260657;28;20234;-77
2023/03/28 12:52:49;;;;;;;2.30;2.30;;;8.30;41.10;;;;;;6262040;28;20230;-80
2023/03/28 12:55:53;;;;;;;2.53;2.43;;;8.40;41.70;;;;;;6246753;28;20229;-77
2023/03/28 12:58:58;;;;;;;2.63;2.43;;;8.10;40.20;;;;;;6271531;28;20230;-78
2023/03/28 13:02:09;;;;;;;2.80;2.70;;;7.60;40.60;;;;;;6253679;28;20349;-79
2023/03/28 13:05:22;;;;;;;2.70;2.60;;;7.40;41.90;;;;;;6253644;28;20237;-79
2023/03/28 13:08:36;;;;;;;2.50;2.40;;;7.50;41.80;;;;;;6257631;28;20551;-78
2023/03/28 13:11:49;;;;;;;2.60;2.50;;;7.50;41.20;;;;;;6257346;28;20367;-76
2023/03/28 13:15:00;;;;;;;2.40;2.40;;;7.20;41.60;;;;;;6260826;28;20234;-80
2023/03/28 13:18:26;;;;;;;3.03;2.87;;;7.30;41.60;;;;;;6257639;28;20241;-81
2023/03/28 13:21:44;;;;;;;2.50;2.50;;;7.50;40.70;;;;;;6221674;28;20752;-79
2023/03/28 13:24:48;;;;;;;3.00;2.90;;;7.80;40.70;;;;;;6254809;28;20710;-76
2023/03/28 13:27:54;;;;;;;2.67;2.60;;;7.90;40.70;;;;;;6257782;28;20580;-74
2023/03/28 13:31:12;;;;;;;2.67;2.63;;;8.00;41.30;;;;;;6254919;28;20276;-76
2023/03/28 13:34:24;;;;;;;2.60;2.60;;;7.80;40.90;;;;;;6264822;28;20469;-80
2023/03/28 13:37:45;;;;;;;2.53;2.53;;;7.80;41.00;;;;;;6264662;28;20241;-77
2023/03/28 13:40:53;;;;;;;2.47;2.37;;;7.80;41.50;;;;;;6265143;28;20234;-76
2023/03/28 13:43:59;;;;;;;2.70;2.60;;;7.40;42.30;;;;;;6260320;28;20226;-78
2023/03/28 13:47:02;;;;;;;2.70;2.60;;;7.20;43.10;;;;;;6260361;28;20249;-77
2023/03/28 13:50:19;;;;;;;4.33;3.93;;;7.50;42.90;;;;;;6260725;28;20234;-76
2023/03/28 13:53:23;;;;;;;2.50;2.50;;;8.00;42.60;;;;;;6236000;28;20314;-77
2023/03/28 13:56:45;;;;;;;2.80;2.60;;;8.20;43.20;;;;;;6249285;28;20250;-77
2023/03/28 13:59:53;;;;;;;2.70;2.70;;;8.20;41.50;;;;;;6256933;28;20581;-77
2023/03/28 14:03:02;;;;;;;2.27;2.27;;;8.10;41.70;;;;;;6251387;28;20493;-76
2023/03/28 14:06:19;;;;;;;2.33;2.33;;;8.10;41.50;;;;;;6250613;28;20230;-76
2023/03/28 14:09:32;;;;;;;2.30;2.30;;;8.30;40.80;;;;;;6255538;28;20234;-76
2023/03/28 14:12:36;;;;;;;2.43;2.33;;;8.20;41.10;;;;;;6277322;28;20241;-78
2023/03/28 14:15:41;;;;;;;2.20;2.20;;;8.30;41.30;;;;;;6272780;28;20240;-76
2023/03/28 14:18:46;;;;;;;2.70;2.60;;;8.30;40.40;;;;;;6254076;28;20244;-76
2023/03/28 14:21:50;;;;;;;2.70;2.70;;;8.40;40.70;;;;;;6256612;28;20354;-77
2023/03/28 14:24:57;;;;;;;2.47;2.47;;;8.40;40.60;;;;;;6266246;28;20713;-76
2023/03/28 14:28:08;;;;;;;2.50;2.50;;;8.60;40.80;;;;;;6260063;28;20234;-77
2023/03/28 14:31:13;;;;;;;2.50;2.50;;;8.30;41.00;;;;;;6269760;28;20349;-78
2023/03/28 14:34:22;;;;;;;2.60;2.50;;;8.10;40.80;;;;;;6266930;28;20777;-77
2023/03/28 14:37:28;;;;;;;3.07;2.73;;;8.20;41.40;;;;;;6256683;28;20510;-76
2023/03/28 14:40:35;;;;;;;2.37;2.37;;;8.20;40.80;;;;;;6273017;28;20728;-76
2023/03/28 14:43:38;;;;;;;2.63;2.53;;;8.20;40.00;;;;;;6256191;28;20458;-78
2023/03/28 14:46:41;;;;;;;2.80;2.60;;;8.20;40.10;;;;;;6264618;28;20428;-75
2023/03/28 14:49:45;;;;;;;2.70;2.70;;;8.30;40.70;;;;;;6285125;28;20233;-77
2023/03/28 14:52:48;;;;;;;2.30;2.30;;;8.50;40.30;;;;;;6286491;28;20254;-76
2023/03/28 14:55:55;;;;;;;2.50;2.50;;;8.60;40.50;;;;;;6283916;28;20385;-76
2023/03/28 14:59:04;;;;;;;2.30;2.30;;;8.60;40.40;;;;;;6280629;28;20241;-77
2023/03/28 15:02:18;;;;;;;2.60;2.30;;;8.50;40.50;;;;;;6291161;28;20739;-78
2023/03/28 15:05:22;;;;;;;2.40;2.40;;;8.50;40.30;;;;;;6262239;28;20241;-77
2023/03/28 15:08:32;;;;;;;2.67;2.60;;;8.40;40.50;;;;;;6277936;28;20272;-77
2023/03/28 15:11:40;;;;;;;2.40;2.40;;;8.50;40.40;;;;;;6290314;28;20230;-76
2023/03/28 15:14:45;;;;;;;2.43;2.43;;;8.50;40.20;;;;;;6278042;28;20249;-77
2023/03/28 15:17:50;;;;;;;2.20;2.20;;;8.60;40.10;;;;;;6273613;28;20246;-76
2023/03/28 15:20:56;;;;;;;2.40;2.40;;;8.90;39.30;;;;;;6265024;28;20260;-80
2023/03/28 15:23:59;;;;;;;2.50;2.50;;;8.90;39.10;;;;;;6294290;28;20458;-76
2023/03/28 15:27:14;;;;;;;2.30;2.30;;;8.70;38.70;;;;;;6295581;28;20232;-76
2023/03/28 15:30:20;;;;;;;2.33;2.33;;;8.40;38.50;;;;;;6289946;28;20225;-76
2023/03/28 15:33:24;;;;;;;2.47;2.47;;;8.30;39.80;;;;;;6287573;28;20226;-77
2023/03/28 15:36:34;;;;;;;2.70;2.70;;;8.30;39.20;;;;;;6286066;28;20290;-76
2023/03/28 15:39:37;;;;;;;2.70;2.70;;;8.10;39.80;;;;;;6300668;28;20249;-77
2023/03/28 15:42:45;;;;;;;2.60;2.50;;;8.00;40.00;;;;;;6302407;28;20425;-79
2023/03/28 15:45:55;;;;;;;2.70;2.70;;;7.80;40.00;;;;;;6279123;28;20237;-81
2023/03/28 15:49:01;;;;;;;2.93;2.83;;;7.80;39.90;;;;;;6280637;28;20241;-77
2023/03/28 15:52:08;;;;;;;2.60;2.60;;;7.60;39.90;;;;;;6287725;28;20242;-77
2023/03/28 15:55:21;;;;;;;2.57;2.57;;;7.40;40.40;;;;;;6290693;28;21039;-77
2023/03/28 15:58:25;;;;;;;2.43;2.43;;;7.20;40.90;;;;;;6264345;28;20306;-77
2023/03/28 16:01:30;;;;;;;2.70;2.63;;;7.00;41.30;;;;;;6259015;28;20761;-78
2023/03/28 16:04:34;;;;;;;2.60;2.60;;;6.90;41.50;;;;;;6265641;28;20688;-79
2023/03/28 16:07:47;;;;;;;2.83;2.83;;;6.80;41.70;;;;;;6266670;28;20360;-78
2023/03/28 16:10:50;;;;;;;2.60;2.60;;;6.70;42.00;;;;;;6263762;28;20617;-76
2023/03/28 16:13:55;;;;;;;3.40;3.27;;;6.70;42.10;;;;;;6290034;28;20337;-76
2023/03/28 16:16:58;;;;;;;3.07;2.97;;;6.60;42.20;;;;;;6295724;28;20229;-76
2023/03/28 16:20:02;;;;;;;3.50;3.20;;;6.60;43.00;;;;;;6286156;28;20320;-76
2023/03/28 16:23:06;;;;;;;3.43;3.20;;;6.50;43.50;;;;;;6283121;28;20226;-78
2023/03/28 16:26:10;;;;;;;3.13;3.03;;;6.60;43.00;;;;;;6283982;28;20278;-76
2023/03/28 16:29:14;;;;;;;3.17;3.10;;;6.50;42.90;;;;;;6266455;28;20933;-78
2023/03/28 16:32:17;;;;;;;3.07;2.97;;;6.60;43.40;;;;;;6267583;28;20237;-77